Time;durP1;ratioP1;P1;durP2;ratioP2;P2;SDS_P1;SDS_P2;PMS_P1;PMS_P2;Temp;Humidity;BMP_temperature;BMP_pressure;BME280_temperature;BME280_humidity;BME280_pressure;Samples;Min_cycle;Max_cycle;Signal;HPM_P1;HPM_P2
2023/09/03 00:01:30;;;;;;;13.68;10.63;;;15.60;99.90;;;;;;5034656;28;20234;-81
2023/09/03 00:03:58;;;;;;;13.70;10.30;;;15.60;99.90;;;;;;5018758;28;20210;-81
2023/09/03 00:06:25;;;;;;;14.98;11.48;;;15.60;99.90;;;;;;5035282;28;20210;-81
2023/09/03 00:08:52;;;;;;;13.15;10.35;;;15.70;99.90;;;;;;5035012;28;20213;-78
2023/09/03 00:11:19;;;;;;;13.93;10.73;;;15.70;99.90;;;;;;5035426;28;20223;-79
2023/09/03 00:13:45;;;;;;;12.48;9.50;;;15.60;99.90;;;;;;5035106;28;20210;-79
2023/09/03 00:16:12;;;;;;;14.07;10.93;;;15.70;99.90;;;;;;5028296;28;20208;-78
2023/09/03 00:18:40;;;;;;;13.73;10.63;;;15.60;99.90;;;;;;5034669;28;20211;-79
2023/09/03 00:21:07;;;;;;;14.52;9.68;;;15.50;99.90;;;;;;5034170;28;20220;-79
2023/09/03 00:23:34;;;;;;;14.52;9.88;;;15.50;99.90;;;;;;5035900;28;20218;-79
2023/09/03 00:26:02;;;;;;;13.57;10.88;;;15.50;99.90;;;;;;5035850;28;20200;-79
2023/09/03 00:28:30;;;;;;;14.77;10.70;;;15.60;99.90;;;;;;5036015;28;20200;-79
2023/09/03 00:31:03;;;;;;;15.20;10.70;;;15.50;99.90;;;;;;5035163;28;20224;-80
2023/09/03 00:33:30;;;;;;;16.20;11.05;;;15.30;99.90;;;;;;5038185;28;20196;-79
2023/09/03 00:35:58;;;;;;;14.10;10.63;;;15.30;99.90;;;;;;5044268;28;20222;-79
2023/09/03 00:38:25;;;;;;;14.70;10.90;;;15.30;99.90;;;;;;5034947;28;20223;-79
2023/09/03 00:40:51;;;;;;;14.65;11.13;;;15.30;99.90;;;;;;5035827;28;20253;-79
2023/09/03 00:43:18;;;;;;;13.32;10.32;;;15.10;99.90;;;;;;5044199;28;20217;-79
2023/09/03 00:45:46;;;;;;;13.85;10.52;;;15.10;99.90;;;;;;5042735;28;20203;-79
2023/09/03 00:48:16;;;;;;;13.48;10.73;;;15.10;99.90;;;;;;5044960;28;20200;-79
2023/09/03 00:50:44;;;;;;;14.88;11.00;;;15.10;99.90;;;;;;5055268;28;20237;-79
2023/09/03 00:53:13;;;;;;;14.95;10.88;;;15.10;99.90;;;;;;5058868;28;20202;-79
2023/09/03 00:55:40;;;;;;;16.45;11.02;;;15.00;99.90;;;;;;5058878;28;20213;-79
2023/09/03 00:58:08;;;;;;;14.75;10.75;;;15.00;99.90;;;;;;5059212;28;20207;-79
2023/09/03 01:00:35;;;;;;;12.60;9.98;;;14.90;99.90;;;;;;5055481;28;20357;-80
2023/09/03 01:03:03;;;;;;;13.82;10.73;;;14.90;99.90;;;;;;5054959;28;20580;-79
2023/09/03 01:05:30;;;;;;;12.43;10.00;;;14.80;99.90;;;;;;5047444;28;20203;-79
2023/09/03 01:08:00;;;;;;;15.32;10.70;;;14.90;99.90;;;;;;5053829;28;20563;-79
2023/09/03 01:10:37;;;;;;;13.80;9.68;;;14.90;99.90;;;;;;5029306;28;20224;-79
2023/09/03 01:13:13;;;;;;;14.90;9.55;;;14.80;99.90;;;;;;5024539;28;20224;-79
2023/09/03 01:15:45;;;;;;;14.30;10.52;;;14.80;99.90;;;;;;5020155;28;20184;-79
2023/09/03 01:18:16;;;;;;;14.75;9.98;;;14.80;99.90;;;;;;5038250;28;20200;-80
2023/09/03 01:20:48;;;;;;;16.65;10.10;;;14.80;99.90;;;;;;5037943;28;20220;-79
2023/09/03 01:23:33;;;;;;;14.07;10.48;;;14.80;99.90;;;;;;5038184;28;20290;-79
2023/09/03 01:26:16;;;;;;;13.63;10.20;;;14.80;99.90;;;;;;5039469;28;20303;-80
2023/09/03 01:28:45;;;;;;;13.60;9.77;;;14.70;99.90;;;;;;5031267;28;20213;-79
2023/09/03 01:31:14;;;;;;;13.00;9.85;;;14.80;99.90;;;;;;5038057;28;20999;-79
2023/09/03 01:33:42;;;;;;;14.05;9.57;;;14.70;99.90;;;;;;5038780;28;20295;-79
2023/09/03 01:36:11;;;;;;;13.93;9.98;;;14.70;99.90;;;;;;5039006;28;20203;-79
2023/09/03 01:38:38;;;;;;;13.38;9.88;;;14.60;99.90;;;;;;5039250;28;20225;-80
2023/09/03 01:41:06;;;;;;;12.73;9.45;;;14.60;99.90;;;;;;5038583;28;20234;-79
2023/09/03 01:43:32;;;;;;;12.48;9.57;;;14.60;99.90;;;;;;5036842;28;20203;-79
2023/09/03 01:46:06;;;;;;;13.70;10.00;;;14.50;99.90;;;;;;5038563;28;20210;-79
2023/09/03 01:48:52;;;;;;;14.80;10.18;;;14.50;99.90;;;;;;5041569;28;20212;-80
2023/09/03 01:51:25;;;;;;;13.30;9.77;;;14.50;99.90;;;;;;5036004;28;20228;-79
2023/09/03 01:53:59;;;;;;;12.77;9.75;;;14.40;99.90;;;;;;5043947;28;20199;-79
2023/09/03 01:56:28;;;;;;;12.18;9.32;;;14.40;99.90;;;;;;5039049;28;20214;-79
2023/09/03 01:59:00;;;;;;;13.18;9.93;;;14.50;99.90;;;;;;5037335;28;20616;-79
2023/09/03 02:01:32;;;;;;;14.85;10.45;;;14.70;99.90;;;;;;5044401;28;20219;-79
2023/09/03 02:03:59;;;;;;;14.13;10.40;;;14.40;99.90;;;;;;5041643;28;20215;-79
2023/09/03 02:06:27;;;;;;;12.27;9.40;;;14.40;99.90;;;;;;5041309;28;20207;-79
2023/09/03 02:08:54;;;;;;;15.60;10.52;;;14.20;99.90;;;;;;5032912;28;20547;-79
2023/09/03 02:11:21;;;;;;;13.55;10.52;;;14.30;99.90;;;;;;5037649;28;20235;-79
2023/09/03 02:13:48;;;;;;;13.87;9.90;;;14.30;99.90;;;;;;5044161;28;20205;-79
2023/09/03 02:16:15;;;;;;;13.93;9.35;;;14.50;99.90;;;;;;5038269;28;20287;-81
2023/09/03 02:18:43;;;;;;;14.73;10.90;;;14.30;99.90;;;;;;5043379;28;20210;-78
2023/09/03 02:21:11;;;;;;;13.85;10.43;;;14.40;99.90;;;;;;5039304;28;20534;-79
2023/09/03 02:23:38;;;;;;;13.20;9.80;;;14.20;99.90;;;;;;5048279;28;20199;-80
2023/09/03 02:26:05;;;;;;;14.02;9.68;;;14.30;99.90;;;;;;5035732;28;20211;-78
2023/09/03 02:28:34;;;;;;;14.77;10.97;;;14.10;99.90;;;;;;5037172;28;20596;-79
2023/09/03 02:31:02;;;;;;;13.47;9.80;;;14.20;99.90;;;;;;5030123;28;20220;-79
2023/09/03 02:33:29;;;;;;;12.98;9.90;;;14.20;99.90;;;;;;5037391;28;20227;-79
2023/09/03 02:35:57;;;;;;;18.70;10.65;;;14.30;99.90;;;;;;5035264;28;20239;-80
2023/09/03 02:38:24;;;;;;;13.75;9.90;;;14.30;99.90;;;;;;5037647;28;20216;-79
2023/09/03 02:40:51;;;;;;;14.47;10.00;;;14.30;99.90;;;;;;5035091;28;21763;-79
2023/09/03 02:43:18;;;;;;;12.67;9.53;;;14.20;99.90;;;;;;5037715;28;20239;-79
2023/09/03 02:45:44;;;;;;;12.77;9.38;;;14.20;99.90;;;;;;5032569;28;20612;-79
2023/09/03 02:48:11;;;;;;;15.10;10.27;;;14.20;99.90;;;;;;5033210;28;20212;-79
2023/09/03 02:50:38;;;;;;;13.00;9.13;;;14.10;99.90;;;;;;5035040;28;20266;-79
2023/09/03 02:53:07;;;;;;;14.45;10.18;;;13.90;99.90;;;;;;5033840;28;20206;-79
2023/09/03 02:55:34;;;;;;;14.60;10.10;;;13.90;99.90;;;;;;5037810;28;20250;-79
2023/09/03 02:58:01;;;;;;;15.30;10.83;;;13.80;99.90;;;;;;5040090;28;20204;-80
2023/09/03 03:00:28;;;;;;;13.60;10.13;;;13.90;99.90;;;;;;5042422;28;20220;-79
2023/09/03 03:02:55;;;;;;;13.57;10.00;;;13.90;99.90;;;;;;5033799;28;20199;-79
2023/09/03 03:05:22;;;;;;;15.33;9.73;;;14.00;99.90;;;;;;5043525;28;20210;-79
2023/09/03 03:07:49;;;;;;;14.33;10.10;;;14.10;99.90;;;;;;5039255;28;20199;-79
2023/09/03 03:10:17;;;;;;;15.73;10.57;;;14.00;99.90;;;;;;5036494;28;20228;-79
2023/09/03 03:12:45;;;;;;;17.10;10.20;;;14.00;99.90;;;;;;5049918;28;20229;-79
2023/09/03 03:15:12;;;;;;;13.73;9.33;;;14.10;99.90;;;;;;5044606;28;20233;-79
2023/09/03 03:17:38;;;;;;;18.67;10.50;;;14.00;99.90;;;;;;5042850;28;20210;-80
2023/09/03 03:20:07;;;;;;;15.67;9.83;;;14.00;99.90;;;;;;5037665;28;20242;-79
2023/09/03 03:22:34;;;;;;;14.70;9.60;;;14.00;99.90;;;;;;5031784;28;20211;-80
2023/09/03 03:25:01;;;;;;;14.80;10.50;;;14.10;99.90;;;;;;5033763;28;20204;-79
2023/09/03 03:27:30;;;;;;;15.77;10.07;;;14.10;99.90;;;;;;5028656;28;20203;-80
2023/09/03 03:29:57;;;;;;;13.82;9.38;;;14.00;99.90;;;;;;5039309;28;20223;-79
2023/09/03 03:32:23;;;;;;;14.18;9.27;;;13.90;99.90;;;;;;5042021;28;20387;-79
2023/09/03 03:34:50;;;;;;;11.23;9.27;;;14.00;99.90;;;;;;5035092;28;20203;-79
2023/09/03 03:37:17;;;;;;;13.10;8.95;;;14.00;99.90;;;;;;5040631;28;20247;-79
2023/09/03 03:39:44;;;;;;;12.60;9.00;;;13.90;99.90;;;;;;5029317;28;20215;-79
2023/09/03 03:42:11;;;;;;;16.23;10.32;;;13.90;99.90;;;;;;5036234;28;20207;-79
2023/09/03 03:44:39;;;;;;;15.13;9.95;;;13.80;99.90;;;;;;5035608;28;20196;-79
2023/09/03 03:47:06;;;;;;;14.20;9.10;;;13.90;99.90;;;;;;5033720;28;20274;-79
2023/09/03 03:49:33;;;;;;;12.88;9.65;;;13.90;99.90;;;;;;5033345;28;20204;-79
2023/09/03 03:51:59;;;;;;;11.90;9.55;;;14.00;99.90;;;;;;5029663;28;20238;-79
2023/09/03 03:54:26;;;;;;;15.60;9.63;;;14.00;99.90;;;;;;5035693;28;20213;-79
2023/09/03 03:56:53;;;;;;;15.50;10.00;;;13.90;99.90;;;;;;5045377;28;20252;-79
2023/09/03 03:59:20;;;;;;;14.10;9.32;;;13.90;99.90;;;;;;5032203;28;20208;-79
2023/09/03 04:01:48;;;;;;;13.10;9.27;;;13.90;99.90;;;;;;5037819;28;20211;-79
2023/09/03 04:04:15;;;;;;;13.10;9.40;;;13.90;99.90;;;;;;5036157;28;20557;-79
2023/09/03 04:06:42;;;;;;;13.87;9.67;;;13.80;99.90;;;;;;5035480;28;20199;-79
2023/09/03 04:09:09;;;;;;;15.63;10.30;;;13.80;99.90;;;;;;5037869;28;20206;-80
2023/09/03 04:11:35;;;;;;;13.53;10.63;;;13.70;99.90;;;;;;5033373;28;20224;-79
2023/09/03 04:14:02;;;;;;;16.42;10.80;;;13.60;99.90;;;;;;5035946;28;20199;-80
2023/09/03 04:16:29;;;;;;;14.52;9.48;;;13.70;99.90;;;;;;5038621;28;20734;-79
2023/09/03 04:18:57;;;;;;;18.13;11.93;;;13.70;99.90;;;;;;5028286;28;20538;-79
2023/09/03 04:21:24;;;;;;;19.80;14.33;;;13.70;99.90;;;;;;5014243;28;20227;-79
2023/09/03 04:23:51;;;;;;;15.90;11.23;;;13.70;99.90;;;;;;5025297;28;20200;-79
2023/09/03 04:26:17;;;;;;;15.20;10.57;;;13.70;99.90;;;;;;5035555;28;20298;-80
2023/09/03 04:28:44;;;;;;;15.77;10.73;;;13.70;99.90;;;;;;5038366;28;20211;-80
2023/09/03 04:31:11;;;;;;;15.37;10.20;;;13.70;99.90;;;;;;5037325;28;20219;-79
2023/09/03 04:33:38;;;;;;;15.73;10.23;;;13.60;99.90;;;;;;5031452;28;20206;-80
2023/09/03 04:36:06;;;;;;;15.43;10.13;;;13.70;99.90;;;;;;5038437;28;20611;-79
2023/09/03 04:38:34;;;;;;;14.70;10.20;;;13.50;99.90;;;;;;5038980;28;20682;-80
2023/09/03 04:41:05;;;;;;;15.37;9.50;;;13.50;99.90;;;;;;5043444;28;20257;-80
2023/09/03 04:43:32;;;;;;;14.47;9.67;;;13.50;99.90;;;;;;5028057;28;20238;-79
2023/09/03 04:45:59;;;;;;;16.13;10.13;;;13.50;99.90;;;;;;5043992;28;20203;-79
2023/09/03 04:48:26;;;;;;;15.03;9.90;;;13.50;99.90;;;;;;5050293;28;20571;-80
2023/09/03 04:50:53;;;;;;;14.53;10.33;;;13.50;99.90;;;;;;5044934;28;20266;-80
2023/09/03 04:53:21;;;;;;;16.77;10.17;;;13.50;99.90;;;;;;5033466;28;20557;-79
2023/09/03 04:55:48;;;;;;;13.53;10.00;;;13.50;99.90;;;;;;5044126;28;20286;-80
2023/09/03 04:58:15;;;;;;;14.55;9.93;;;13.40;99.90;;;;;;5038522;28;20204;-79
2023/09/03 05:00:42;;;;;;;15.83;9.90;;;13.40;99.90;;;;;;5035064;28;20255;-79
2023/09/03 05:03:10;;;;;;;16.83;10.70;;;13.40;99.90;;;;;;5037008;28;20210;-79
2023/09/03 05:05:41;;;;;;;19.90;14.13;;;13.40;99.90;;;;;;5036902;28;20207;-80
2023/09/03 05:08:09;;;;;;;16.80;10.87;;;13.50;99.90;;;;;;5035073;28;20213;-79
2023/09/03 05:10:38;;;;;;;16.53;10.43;;;13.50;99.90;;;;;;5040917;28;20228;-80
2023/09/03 05:13:05;;;;;;;16.03;10.27;;;13.50;99.90;;;;;;5039546;28;20208;-81
2023/09/03 05:15:32;;;;;;;13.47;9.63;;;13.50;99.90;;;;;;5035060;28;20225;-80
2023/09/03 05:17:59;;;;;;;13.00;9.90;;;13.50;99.90;;;;;;5037000;28;20196;-80
2023/09/03 05:20:26;;;;;;;14.83;9.40;;;13.50;99.90;;;;;;5037295;28;20223;-81
2023/09/03 05:22:52;;;;;;;14.80;9.97;;;13.50;99.90;;;;;;5034542;28;20254;-80
2023/09/03 05:25:19;;;;;;;15.70;10.00;;;13.50;99.90;;;;;;5035223;28;20580;-80
2023/09/03 05:27:47;;;;;;;15.55;9.75;;;13.50;99.90;;;;;;5037340;28;20199;-80
2023/09/03 05:30:14;;;;;;;15.15;9.85;;;13.50;99.90;;;;;;5032150;28;20279;-81
2023/09/03 05:32:41;;;;;;;14.97;10.73;;;13.60;99.90;;;;;;5032710;28;20229;-81
2023/09/03 05:35:09;;;;;;;13.80;9.80;;;13.60;99.90;;;;;;5034430;28;20204;-81
2023/09/03 05:37:36;;;;;;;14.03;9.53;;;13.70;99.90;;;;;;5032154;28;20862;-81
2023/09/03 05:40:04;;;;;;;15.77;10.27;;;13.60;99.90;;;;;;5046186;28;20226;-81
2023/09/03 05:42:31;;;;;;;13.52;9.02;;;13.60;99.90;;;;;;5035519;28;20595;-80
2023/09/03 05:45:00;;;;;;;15.43;9.48;;;13.70;99.90;;;;;;5033260;28;20231;-82
2023/09/03 05:47:26;;;;;;;14.52;9.82;;;13.70;99.90;;;;;;5035193;28;20203;-80
2023/09/03 05:49:56;;;;;;;16.08;10.05;;;13.80;99.90;;;;;;5036261;28;20237;-80
2023/09/03 05:52:23;;;;;;;16.95;10.88;;;13.80;99.90;;;;;;5036961;28;20239;-80
2023/09/03 05:54:51;;;;;;;16.90;10.30;;;13.80;99.90;;;;;;5036724;28;20204;-81
2023/09/03 05:57:18;;;;;;;16.55;10.35;;;13.80;99.90;;;;;;5036659;28;20291;-81
2023/09/03 05:59:49;;;;;;;16.40;10.55;;;13.90;99.90;;;;;;5040587;28;20251;-81
2023/09/03 06:02:18;;;;;;;15.73;10.83;;;14.00;99.90;;;;;;5036045;28;20196;-80
2023/09/03 06:04:44;;;;;;;17.10;12.05;;;14.00;99.90;;;;;;5029039;28;20204;-81
2023/09/03 06:07:11;;;;;;;19.90;11.60;;;14.20;99.90;;;;;;5023575;28;20207;-81
2023/09/03 06:09:38;;;;;;;19.57;10.97;;;14.20;99.90;;;;;;5035798;28;20226;-79
2023/09/03 06:12:06;;;;;;;16.58;10.93;;;14.10;99.90;;;;;;5043196;28;20234;-81
2023/09/03 06:14:33;;;;;;;17.75;11.75;;;14.20;99.90;;;;;;5035066;28;20246;-80
2023/09/03 06:17:04;;;;;;;17.77;11.73;;;14.30;99.90;;;;;;5042011;28;20227;-80
2023/09/03 06:19:32;;;;;;;17.77;11.95;;;14.40;99.90;;;;;;5035321;28;20200;-81
2023/09/03 06:21:59;;;;;;;27.67;19.17;;;14.50;99.90;;;;;;5036246;28;20747;-80
2023/09/03 06:24:27;;;;;;;22.85;15.60;;;14.60;99.90;;;;;;5039259;28;20234;-80
2023/09/03 06:26:53;;;;;;;19.88;12.98;;;14.50;99.90;;;;;;5038602;28;20720;-82
2023/09/03 06:29:20;;;;;;;16.15;11.10;;;14.40;99.90;;;;;;5032295;28;20724;-80
2023/09/03 06:31:47;;;;;;;19.25;12.30;;;14.40;99.90;;;;;;5035009;28;20272;-81
2023/09/03 06:34:14;;;;;;;19.23;12.27;;;14.50;99.90;;;;;;5038417;28;20303;-80
2023/09/03 06:36:42;;;;;;;20.35;12.98;;;14.60;99.90;;;;;;5033048;28;20203;-80
2023/09/03 06:39:09;;;;;;;18.40;13.70;;;14.50;99.90;;;;;;5039425;28;20302;-78
2023/09/03 06:41:36;;;;;;;19.95;13.23;;;14.60;99.90;;;;;;5033515;28;20231;-77
2023/09/03 06:44:03;;;;;;;20.70;12.68;;;14.70;99.90;;;;;;5041637;28;20211;-78
2023/09/03 06:46:30;;;;;;;21.45;14.13;;;14.80;99.90;;;;;;5045885;28;20203;-80
2023/09/03 06:48:58;;;;;;;22.08;14.43;;;14.90;99.90;;;;;;5043170;28;20211;-79
2023/09/03 06:51:25;;;;;;;23.35;14.25;;;15.00;99.90;;;;;;5033944;28;20227;-82
2023/09/03 06:53:54;;;;;;;20.20;14.40;;;15.10;99.90;;;;;;5035382;28;20206;-81
2023/09/03 06:56:20;;;;;;;20.65;14.05;;;15.20;99.90;;;;;;5039696;28;20204;-81
2023/09/03 06:58:47;;;;;;;22.40;14.52;;;15.30;99.90;;;;;;5031363;28;20287;-79
2023/09/03 07:01:14;;;;;;;21.00;13.77;;;15.40;99.90;;;;;;5038433;28;20233;-78
2023/09/03 07:03:41;;;;;;;22.00;14.63;;;15.40;99.90;;;;;;5041004;28;20275;-79
2023/09/03 07:06:08;;;;;;;20.13;13.73;;;15.60;99.90;;;;;;5031368;28;20808;-80
2023/09/03 07:08:35;;;;;;;18.33;12.77;;;15.60;99.90;;;;;;5038350;28;20541;-83
2023/09/03 07:11:03;;;;;;;17.92;11.88;;;15.70;99.90;;;;;;5033673;28;20254;-80
2023/09/03 07:13:30;;;;;;;16.50;11.20;;;15.90;99.90;;;;;;5040368;28;20206;-81
2023/09/03 07:15:56;;;;;;;18.23;11.75;;;15.70;99.90;;;;;;5029923;28;20293;-81
2023/09/03 07:18:23;;;;;;;21.17;11.75;;;15.60;99.90;;;;;;5035903;28;20295;-83
2023/09/03 07:21:03;;;;;;;18.02;12.43;;;15.80;99.90;;;;;;5041094;28;20220;-80
2023/09/03 07:23:30;;;;;;;18.25;11.13;;;15.80;99.90;;;;;;5031442;28;20199;-81
2023/09/03 07:26:04;;;;;;;16.05;11.02;;;15.90;99.90;;;;;;5040356;28;20219;-81
2023/09/03 07:28:31;;;;;;;18.08;11.57;;;16.00;99.90;;;;;;5047049;28;20200;-81
2023/09/03 07:30:58;;;;;;;19.08;11.98;;;16.00;99.90;;;;;;5024840;28;20224;-80
2023/09/03 07:33:25;;;;;;;16.10;10.13;;;16.10;99.90;;;;;;5040310;28;20798;-81
2023/09/03 07:35:52;;;;;;;17.38;10.38;;;16.20;99.90;;;;;;5033924;28;20263;-81
2023/09/03 07:38:19;;;;;;;17.50;10.93;;;16.30;99.90;;;;;;5030501;28;20210;-81
2023/09/03 07:40:46;;;;;;;16.55;10.95;;;16.30;99.90;;;;;;5027869;28;20235;-80
2023/09/03 07:43:14;;;;;;;15.35;10.57;;;16.40;99.90;;;;;;5035401;28;20291;-79
2023/09/03 07:45:42;;;;;;;16.70;10.85;;;16.60;99.90;;;;;;5044957;28;20565;-79
2023/09/03 07:48:08;;;;;;;17.40;11.10;;;16.80;99.90;;;;;;5032064;28;20197;-78
2023/09/03 07:50:38;;;;;;;16.55;10.40;;;17.00;99.90;;;;;;5041712;28;20250;-79
2023/09/03 07:53:05;;;;;;;16.63;10.52;;;16.80;99.90;;;;;;5031250;28;20311;-80
2023/09/03 07:55:32;;;;;;;13.50;9.85;;;16.90;99.90;;;;;;5038600;28;20207;-81
2023/09/03 07:57:59;;;;;;;14.77;9.52;;;17.00;99.90;;;;;;5033184;28;20196;-81
2023/09/03 08:00:28;;;;;;;17.17;9.40;;;17.10;99.90;;;;;;5036107;28;20310;-81
2023/09/03 08:02:55;;;;;;;9.98;6.47;;;17.00;99.90;;;;;;5034803;28;20654;-81
2023/09/03 08:05:23;;;;;;;10.98;5.72;;;17.00;99.90;;;;;;5034850;28;20746;-81
2023/09/03 08:07:50;;;;;;;10.35;7.20;;;17.30;99.90;;;;;;5043063;28;20614;-80
2023/09/03 08:10:17;;;;;;;9.55;7.07;;;17.30;99.90;;;;;;5034637;28;20306;-81
2023/09/03 08:12:43;;;;;;;14.73;8.80;;;17.30;99.90;;;;;;5034158;28;20246;-82
2023/09/03 08:15:11;;;;;;;10.23;7.50;;;17.40;99.90;;;;;;5027807;28;20203;-81
2023/09/03 08:17:39;;;;;;;11.52;7.55;;;17.50;99.90;;;;;;5028304;28;20206;-80
2023/09/03 08:20:07;;;;;;;11.65;6.82;;;17.60;99.90;;;;;;5041709;28;20657;-80
2023/09/03 08:22:34;;;;;;;8.10;5.72;;;17.60;99.90;;;;;;5037717;28;20192;-80
2023/09/03 08:25:01;;;;;;;11.48;6.15;;;17.60;99.90;;;;;;5039830;28;20202;-80
2023/09/03 08:27:27;;;;;;;8.30;6.15;;;17.30;99.90;;;;;;5040863;28;20206;-80
2023/09/03 08:29:54;;;;;;;9.63;6.10;;;17.30;99.90;;;;;;5029314;28;20693;-80
2023/09/03 08:32:21;;;;;;;10.35;5.50;;;17.40;99.90;;;;;;5035362;28;20231;-80
2023/09/03 08:34:50;;;;;;;7.07;5.95;;;17.60;99.90;;;;;;5038385;28;20203;-81
2023/09/03 08:37:17;;;;;;;9.57;6.25;;;17.60;99.90;;;;;;5030818;28;20227;-80
2023/09/03 08:39:44;;;;;;;13.00;7.43;;;17.80;99.90;;;;;;5044992;28;20210;-80
2023/09/03 08:42:15;;;;;;;7.60;4.25;;;17.90;99.90;;;;;;5035462;28;20199;-79
2023/09/03 08:44:48;;;;;;;5.75;4.30;;;18.00;99.90;;;;;;5037046;28;20593;-80
2023/09/03 08:47:18;;;;;;;5.57;3.60;;;18.20;99.90;;;;;;5035175;28;20204;-80
2023/09/03 08:49:46;;;;;;;5.03;3.83;;;18.10;99.90;;;;;;5029030;28;20638;-80
2023/09/03 08:52:16;;;;;;;6.30;4.40;;;18.00;99.90;;;;;;5037694;28;20227;-80
2023/09/03 08:54:43;;;;;;;6.95;4.00;;;17.80;99.90;;;;;;5035547;28;20200;-80
2023/09/03 08:57:11;;;;;;;8.43;3.72;;;17.90;99.90;;;;;;5037585;28;20215;-80
2023/09/03 08:59:38;;;;;;;7.38;4.18;;;18.30;99.90;;;;;;5046460;28;20200;-81
2023/09/03 09:02:11;;;;;;;4.95;3.13;;;18.30;99.90;;;;;;5043670;28;20290;-79
2023/09/03 09:04:38;;;;;;;4.70;3.85;;;18.40;99.90;;;;;;5038022;28;20286;-79
2023/09/03 09:07:07;;;;;;;6.88;4.20;;;18.60;99.90;;;;;;5036503;28;20203;-79
2023/09/03 09:09:36;;;;;;;5.90;3.78;;;18.60;99.90;;;;;;5039056;28;20196;-79
2023/09/03 09:12:11;;;;;;;6.45;3.30;;;18.80;99.90;;;;;;5044480;28;20665;-78
2023/09/03 09:14:43;;;;;;;6.70;3.42;;;18.90;99.90;;;;;;5035832;28;20230;-79
2023/09/03 09:17:13;;;;;;;5.30;3.47;;;18.90;99.90;;;;;;5041759;28;20214;-81
2023/09/03 09:19:41;;;;;;;6.70;3.40;;;19.10;99.90;;;;;;5026742;28;20200;-78
2023/09/03 09:22:08;;;;;;;5.18;3.20;;;19.00;99.90;;;;;;5042023;28;20281;-78
2023/09/03 09:24:43;;;;;;;8.00;3.80;;;19.30;99.90;;;;;;5040079;28;20204;-78
2023/09/03 09:27:18;;;;;;;5.82;3.20;;;19.60;99.90;;;;;;5038576;28;20207;-79
2023/09/03 09:29:46;;;;;;;3.58;2.88;;;19.70;99.90;;;;;;5036561;28;20579;-79
2023/09/03 09:32:20;;;;;;;5.25;3.03;;;19.90;99.90;;;;;;5040254;28;20608;-79
2023/09/03 09:34:47;;;;;;;4.15;2.60;;;19.70;99.90;;;;;;5039532;28;20713;-78
2023/09/03 09:37:15;;;;;;;3.33;2.70;;;19.50;99.90;;;;;;5035442;28;20199;-79
2023/09/03 09:39:47;;;;;;;4.93;2.97;;;20.10;99.90;;;;;;5038840;28;20208;-80
2023/09/03 09:42:18;;;;;;;3.63;2.90;;;20.50;99.90;;;;;;5039154;28;20200;-80
2023/09/03 09:44:59;;;;;;;5.72;2.72;;;20.30;99.90;;;;;;5024330;28;20200;-79
2023/09/03 09:47:26;;;;;;;3.88;2.78;;;20.00;99.90;;;;;;5024330;28;20203;-79
2023/09/03 09:49:53;;;;;;;5.32;2.50;;;19.70;99.90;;;;;;5035922;28;20222;-79
2023/09/03 09:52:20;;;;;;;6.57;2.67;;;19.50;99.90;;;;;;5038218;28;20222;-79
2023/09/03 09:54:49;;;;;;;3.78;2.47;;;20.10;99.90;;;;;;5045997;28;20652;-80
2023/09/03 09:57:19;;;;;;;3.47;1.90;;;20.20;99.90;;;;;;5033441;28;20811;-79
2023/09/03 09:59:52;;;;;;;3.85;2.20;;;20.30;99.90;;;;;;5037700;28;20203;-79
2023/09/03 10:02:20;;;;;;;6.07;3.22;;;20.20;99.90;;;;;;5040312;28;20214;-80
2023/09/03 10:04:48;;;;;;;3.35;2.50;;;20.40;99.90;;;;;;5043248;28;20298;-79
2023/09/03 10:07:15;;;;;;;3.30;2.10;;;20.90;99.90;;;;;;5037383;28;20204;-80
2023/09/03 10:09:45;;;;;;;2.22;1.98;;;21.20;99.90;;;;;;5037514;28;20195;-80
2023/09/03 10:12:14;;;;;;;2.20;2.00;;;21.20;99.90;;;;;;5042626;28;20219;-81
2023/09/03 10:14:41;;;;;;;3.35;2.35;;;21.10;99.90;;;;;;5036153;28;20207;-80
2023/09/03 10:17:09;;;;;;;2.03;1.90;;;21.20;99.90;;;;;;5041418;28;20211;-81
2023/09/03 10:19:49;;;;;;;2.95;1.98;;;20.70;99.90;;;;;;5032484;28;20201;-79
2023/09/03 10:22:18;;;;;;;1.80;1.70;;;20.60;99.90;;;;;;5038573;28;20200;-80
2023/09/03 10:24:51;;;;;;;2.83;1.90;;;20.70;99.90;;;;;;5024212;28;20196;-81
2023/09/03 10:27:24;;;;;;;2.10;1.70;;;21.60;99.90;;;;;;5037572;28;20208;-80
2023/09/03 10:29:52;;;;;;;3.25;1.65;;;22.10;99.90;;;;;;5041077;28;20212;-80
2023/09/03 10:32:21;;;;;;;2.10;1.90;;;22.20;99.90;;;;;;5035334;28;20223;-80
2023/09/03 10:34:48;;;;;;;2.40;2.20;;;22.30;99.90;;;;;;5034997;28;20206;-80
2023/09/03 10:37:15;;;;;;;3.08;2.30;;;21.90;99.90;;;;;;5042210;28;20204;-80
2023/09/03 10:39:45;;;;;;;2.90;1.85;;;22.00;99.90;;;;;;5036243;28;20207;-79
2023/09/03 10:42:29;;;;;;;1.85;1.60;;;22.00;99.90;;;;;;5035827;28;20581;-79
2023/09/03 10:44:57;;;;;;;1.98;1.70;;;21.60;99.90;;;;;;5042127;28;20238;-80
2023/09/03 10:47:25;;;;;;;2.03;1.80;;;21.50;99.90;;;;;;5029725;28;20208;-79
2023/09/03 10:49:53;;;;;;;2.70;1.52;;;22.10;99.90;;;;;;5038921;28;20223;-79
2023/09/03 10:52:39;;;;;;;2.58;1.80;;;21.80;99.90;;;;;;5034542;28;20965;-79
2023/09/03 10:55:11;;;;;;;1.40;1.30;;;21.70;99.90;;;;;;5040934;28;20215;-80
2023/09/03 10:57:39;;;;;;;1.60;1.50;;;22.10;99.90;;;;;;5035315;28;20203;-79
2023/09/03 11:00:11;;;;;;;3.95;1.75;;;22.50;99.90;;;;;;5038763;28;20223;-78
2023/09/03 11:02:39;;;;;;;2.13;1.35;;;22.50;99.90;;;;;;5037482;28;20224;-79
2023/09/03 11:05:19;;;;;;;1.40;1.15;;;22.20;99.90;;;;;;5036558;28;20222;-79
2023/09/03 11:07:47;;;;;;;2.95;1.25;;;22.20;99.90;;;;;;5035025;28;20203;-79
2023/09/03 11:10:40;;;;;;;2.05;1.38;;;22.60;99.90;;;;;;5035363;28;20232;-79
2023/09/03 11:13:12;;;;;;;1.65;1.40;;;22.70;99.90;;;;;;5027877;28;20230;-79
2023/09/03 11:15:55;;;;;;;2.13;1.25;;;22.70;99.90;;;;;;5044693;28;20643;-80
2023/09/03 11:18:25;;;;;;;2.25;1.80;;;22.10;99.90;;;;;;5031511;28;20208;-79
2023/09/03 11:20:53;;;;;;;3.40;1.48;;;22.00;99.90;;;;;;5040093;28;20215;-80
2023/09/03 11:23:20;;;;;;;3.38;1.80;;;21.80;99.90;;;;;;5042647;28;20695;-80
2023/09/03 11:25:47;;;;;;;2.80;1.33;;;22.20;99.90;;;;;;5034786;28;20581;-80
2023/09/03 11:28:15;;;;;;;1.42;1.33;;;22.60;99.90;;;;;;5023693;28;20204;-80
2023/09/03 11:30:43;;;;;;;1.77;1.60;;;22.60;99.90;;;;;;5034444;28;20224;-80
2023/09/03 11:33:22;;;;;;;3.55;1.50;;;22.20;99.90;;;;;;5035142;28;20221;-80
2023/09/03 11:35:50;;;;;;;1.55;1.45;;;22.70;99.90;;;;;;5032967;28;20223;-80
2023/09/03 11:38:18;;;;;;;2.70;1.50;;;22.80;99.90;;;;;;5034484;28;20227;-83
2023/09/03 11:40:45;;;;;;;3.88;1.73;;;22.70;99.90;;;;;;5029271;28;20255;-82
2023/09/03 11:43:12;;;;;;;1.52;1.35;;;23.10;99.90;;;;;;5014992;28;20278;-83
2023/09/03 11:45:41;;;;;;;1.40;1.30;;;22.90;99.90;;;;;;5026602;28;20219;-84
2023/09/03 11:48:08;;;;;;;2.95;1.70;;;22.30;99.90;;;;;;5018623;28;20562;-83
2023/09/03 11:50:36;;;;;;;1.33;1.27;;;22.10;99.90;;;;;;5014287;28;20225;-82
2023/09/03 11:53:04;;;;;;;2.35;1.52;;;22.40;99.90;;;;;;5013362;28;20231;-82
2023/09/03 11:55:35;;;;;;;3.95;1.35;;;23.10;99.90;;;;;;5013930;28;20665;-82
2023/09/03 11:58:05;;;;;;;1.83;1.35;;;23.40;99.90;;;;;;5021766;28;20227;-83
2023/09/03 12:00:33;;;;;;;1.45;1.35;;;23.10;99.90;;;;;;5015462;28;20598;-83
2023/09/03 12:03:02;;;;;;;4.00;1.40;;;23.40;99.90;;;;;;5014636;28;20308;-82
2023/09/03 12:05:29;;;;;;;1.70;1.42;;;22.70;99.90;;;;;;5014176;28;20210;-81
2023/09/03 12:08:02;;;;;;;2.30;1.10;;;23.20;99.90;;;;;;5028535;28;20203;-82
2023/09/03 12:10:29;;;;;;;1.83;1.55;;;22.80;99.90;;;;;;5034334;28;20571;-82
2023/09/03 12:12:56;;;;;;;1.65;1.40;;;23.30;99.90;;;;;;5033800;28;20310;-82
2023/09/03 12:15:24;;;;;;;3.03;1.50;;;23.70;99.90;;;;;;5033777;28;20294;-83
2023/09/03 12:17:52;;;;;;;1.65;1.50;;;23.40;99.90;;;;;;5034349;28;20290;-82
2023/09/03 12:20:37;;;;;;;1.85;1.50;;;23.10;99.90;;;;;;5034804;28;20239;-82
2023/09/03 12:23:12;;;;;;;2.65;1.65;;;22.70;99.90;;;;;;5035264;28;20592;-82
2023/09/03 12:25:40;;;;;;;2.35;1.48;;;22.40;99.90;;;;;;5034805;28;20214;-82
2023/09/03 12:28:07;;;;;;;1.38;1.23;;;22.60;99.90;;;;;;5034077;28;20208;-82
2023/09/03 12:30:59;;;;;;;2.80;1.73;;;23.30;99.90;;;;;;5033813;28;20262;-81
2023/09/03 12:33:27;;;;;;;2.28;1.50;;;23.80;99.90;;;;;;5034208;28;20223;-81
2023/09/03 12:36:06;;;;;;;1.77;1.48;;;23.30;99.90;;;;;;5034546;28;20207;-82
2023/09/03 12:38:47;;;;;;;1.55;1.45;;;22.30;99.90;;;;;;5035306;28;20629;-81
2023/09/03 12:41:13;;;;;;;2.63;1.70;;;23.30;99.90;;;;;;5032750;28;20687;-82
2023/09/03 12:43:41;;;;;;;1.50;1.40;;;23.90;99.90;;;;;;5025204;28;20363;-82